AirNav   TITAN Aviation Fuels
 
 722 users online  

IS33 Willhoit Airport
Staunton, Illinois, USA

GOING TO STAUNTON?


FAA INFORMATION EFFECTIVE 07 OCTOBER 2021

Location

FAA Identifier: IS33
Lat/Long: 39-02-44.1670N 089-50-26.3500W
39-02.736117N 089-50.439167W
39.0456019,-89.8406528
(estimated)
Elevation: 614 ft. / 187.1 m (surveyed)
Variation: 01E (1985)
From city: 3 miles NW of STAUNTON, IL
Time zone: UTC -5 (UTC -6 during Standard Time)
Zip code: 62088

Airport Operations

Airport use: Private use. Permission required prior to landing
Activation date: 11/1967
Control tower: no
ARTCC: KANSAS CITY CENTER
FSS: SAINT LOUIS FLIGHT SERVICE STATION
Attendance: IREG
Wind indicator: yes
Segmented circle: no

Airport Communications

WX AWOS-3 at 3LF (10 nm NE): 118.175 (217-324-4735)
WX AWOS-3 at ALN (13 nm SW): 128.0 (618-259-7231)

Nearby radio navigation aids

VOR radial/distance  VOR name  Freq  Var
TOYr007/18.7TROY VORTAC116.0004E
VLAr261/31.7VANDALIA VOR/DME114.3004E
STLr069/31.9ST LOUIS VORTAC117.4001E

 
NDB name  Hdg/Dist  Freq  Var  ID
CIVIC MEMORIAL049/13.626301WCVM -.-. ...- --

Airport Services

Airframe service: NONE
Powerplant service: NONE

Runway Information

Runway E/W

Dimensions: 1900 x 75 ft. / 579 x 23 m
1300 FT ASPH ON E END, REMAINDER TURF.
Surface: asphalt/turf
RUNWAY E  RUNWAY W
Traffic pattern: leftleft
Obstructions: nonetrees

Airport Ownership and Management from official FAA records

Ownership: Privately-owned
Owner: ROBERT WILLHOIT
3185 WILLHOIT AIRPORT RD
STAUNTON, IL 62088
Phone 618-635-3252
Manager: ROBERT WILLHOIT
3185 WILLHOIT AIRPORT RD
STAUNTON, IL 62088
Phone 618-635-3252

Airport Operational Statistics

Aircraft based on the field: 8
Single engine airplanes: 8
    

Additional Remarks

FOR CD CTC ST LOUIS APCH AT 314-890-1018.

Instrument Procedures

There are no published instrument procedures at IS33.

Some nearby airports with instrument procedures:

3LF - Litchfield Municipal Airport (10 nm NE)
KALN - St Louis Regional Airport (13 nm SW)
KGRE - Greenville Airport (25 nm SE)
KSET - St Charles County Smartt Airport (28 nm W)
KBLV - Scott Air Force Base/MidAmerica Airport (30 nm S)
 
Loc | Ops | Rwys | IFR | FBO | Links
Com | Nav | Svcs | Stats | Notes
Area around IS33 (Willhoit Airport)
 
Road maps at: MapQuest Bing Google
 
Aerial photo
No photo
 
Sectional chart

 
Airport distance calculator
Flying to Willhoit Airport? Find the distance to fly.

From to IS33

Sunrise and sunset
Times for 27-Oct-2021
 Local
(UTC-5)
 Zulu
(UTC)
Morning civil twilight06:5511:55
Sunrise07:2212:22
Sunset18:0423:04
Evening civil twilight18:3223:32

Current date and time
Zulu (UTC)  28-Oct-2021 04:33:09
Local (UTC-5)  27-Oct-2021 23:33:09
 
METAR
K3LF 
10nm NE 
280415Z AUTO 11015G21KT 10SM -DZ SCT055 SCT070 OVC120 12/04 A2966 RMK AO2 T01170039
KALN 
13nm SW 
280410Z AUTO 09011G17KT 10SM OVC100 13/05 A2962 RMK AO2 T01290047
TAF
KSTL 
30nm SW 
280259Z 2803/2906 11014G20KT P6SM -RA OVC080 FM280700 10013G19KT 5SM SHRA BR OVC040 FM281100 09011KT 4SM SHRA BR OVC015 FM281400 08009KT 5SM -DZ BR OVC008 FM290000 03007KT 5SM -DZ BR OVC012
KBLV 
31nm S 
280000Z 2800/2906 10009KT 9999 FEW100 SCT200 QNH2959INS BECMG 2808/2809 09012KT 9000 -RA FEW010 BKN020 QNH2947INS BECMG 2811/2812 09012KT 9000 -SHRA OVC007 QNH2945INS TEMPO 2812/2816 OVC001 BECMG 2816/2817 08009KT 8000 -DZ BR OVC002 QNH2935INS TX15/2821Z TN09/2809Z
KCPS 
32nm SW 
271729Z 2718/2818 13012G19KT P6SM SCT250 FM280300 11010G20KT P6SM -SHRA OVC070 FM280700 09009KT 5SM -SHRA BR OVC035 FM280900 06008KT 4SM SHRA BR OVC020 FM281300 02010KT 5SM -RA BR OVC010
NOTAMs
Click for the latest NOTAMs
NOTAMs are issued by the DoD/FAA and will open in a separate window not controlled by AirNav.

 

 
 

Would you like to see your business listed on this page?

 If your business provides an interesting product or service to pilots, flight crews, aircraft, or users of the Willhoit Airport, you should consider listing it here.  To start the listing process, click on the button below
 
Add a business
 

Other Pages about Willhoit Airport

Update a link
 
Copyright © AirNav, LLC. All rights reserved. Privacy Policy  Contact